Time;durP1;ratioP1;P1;durP2;ratioP2;P2;SDS_P1;SDS_P2;PMS_P1;PMS_P2;Temp;Humidity;BMP_temperature;BMP_pressure;BME280_temperature;BME280_humidity;BME280_pressure;Samples;Min_cycle;Max_cycle;Signal;HPM_P1;HPM_P2
2021/08/18 00:01:01;;;;;;;15.30;9.97;;;;;;;13.79;100.00;100486.31;5246186;28;20024;-79
2021/08/18 00:03:31;;;;;;;12.95;9.13;;;;;;;13.96;100.00;100468.78;5228217;28;20327;-79
2021/08/18 00:06:02;;;;;;;13.65;9.38;;;;;;;14.00;100.00;100470.31;5243981;28;20043;-79
2021/08/18 00:08:32;;;;;;;11.10;8.63;;;;;;;13.95;100.00;100474.09;5243455;28;20040;-80
2021/08/18 00:11:03;;;;;;;11.27;9.23;;;;;;;13.93;100.00;100468.06;5246170;28;20125;-79
2021/08/18 00:13:34;;;;;;;11.98;9.10;;;;;;;13.86;100.00;100469.28;5246400;28;20025;-80
2021/08/18 00:16:04;;;;;;;13.43;8.85;;;;;;;13.90;100.00;100470.88;5246098;28;20028;-79
2021/08/18 00:18:35;;;;;;;11.15;8.27;;;;;;;13.99;100.00;100476.50;5230753;22;20052;-78
2021/08/18 00:21:05;;;;;;;11.05;8.60;;;;;;;13.99;100.00;100466.00;5233963;28;20419;-78
2021/08/18 00:23:35;;;;;;;11.13;8.50;;;;;;;14.10;100.00;100466.28;5227456;28;20200;-78
2021/08/18 00:26:05;;;;;;;12.20;8.23;;;;;;;14.10;100.00;100463.63;5224480;28;20102;-78
2021/08/18 00:28:36;;;;;;;11.18;8.38;;;;;;;14.14;100.00;100473.09;5226669;28;20298;-78
2021/08/18 00:31:06;;;;;;;9.35;7.95;;;;;;;14.04;100.00;100463.97;5220991;28;20115;-78
2021/08/18 00:33:37;;;;;;;11.10;8.80;;;;;;;14.00;100.00;100458.94;5220584;28;20048;-76
2021/08/18 00:36:07;;;;;;;11.35;8.65;;;;;;;13.94;100.00;100462.72;5218109;28;20467;-76
2021/08/18 00:38:37;;;;;;;11.40;8.25;;;;;;;14.11;100.00;100461.88;5217886;28;20027;-78
2021/08/18 00:41:09;;;;;;;11.27;7.78;;;;;;;14.28;100.00;100459.25;5215263;28;20025;-78
2021/08/18 00:43:40;;;;;;;13.68;7.93;;;;;;;14.25;100.00;100459.41;5211851;28;20033;-79
2021/08/18 00:46:10;;;;;;;9.23;7.20;;;;;;;14.33;100.00;100457.22;5213208;28;20482;-77
2021/08/18 00:48:40;;;;;;;8.45;7.15;;;;;;;14.31;100.00;100459.94;5208320;28;20029;-77
2021/08/18 00:51:12;;;;;;;9.88;7.53;;;;;;;14.25;100.00;100456.78;5210975;28;20040;-77
2021/08/18 00:53:43;;;;;;;8.60;6.97;;;;;;;14.34;100.00;100457.16;5211522;28;20033;-77
2021/08/18 00:56:13;;;;;;;9.57;6.90;;;;;;;14.41;100.00;100460.31;5210748;28;20032;-77
2021/08/18 00:58:43;;;;;;;9.43;7.07;;;;;;;14.42;100.00;100457.59;5208768;28;20017;-79
2021/08/18 01:01:13;;;;;;;8.88;6.60;;;;;;;14.57;100.00;100461.19;5201170;28;20475;-77
2021/08/18 01:03:44;;;;;;;7.75;6.55;;;;;;;14.62;100.00;100459.16;5191127;28;20029;-77
2021/08/18 01:06:14;;;;;;;7.90;7.03;;;;;;;14.56;100.00;100455.06;5211831;28;20044;-77
2021/08/18 01:08:44;;;;;;;9.13;6.80;;;;;;;14.49;100.00;100450.22;5209511;28;20079;-78
2021/08/18 01:11:14;;;;;;;8.88;7.70;;;;;;;14.48;100.00;100457.28;5211148;28;20271;-78
2021/08/18 01:13:45;;;;;;;8.52;6.80;;;;;;;14.43;100.00;100458.44;5211303;28;20433;-78
2021/08/18 01:16:16;;;;;;;8.65;7.05;;;;;;;14.51;100.00;100458.88;5210179;28;20446;-78
2021/08/18 01:18:46;;;;;;;10.13;7.32;;;;;;;14.57;100.00;100461.19;5211682;28;20056;-77
2021/08/18 01:21:16;;;;;;;8.57;6.40;;;;;;;14.66;100.00;100455.44;5211171;28;20364;-77
2021/08/18 01:23:47;;;;;;;8.55;6.95;;;;;;;14.61;100.00;100449.56;5210889;28;20025;-78
2021/08/18 01:26:17;;;;;;;8.73;6.33;;;;;;;14.61;100.00;100454.84;5211362;28;20049;-77
2021/08/18 01:28:50;;;;;;;9.48;6.32;;;;;;;14.54;100.00;100448.19;5210495;28;20295;-76
2021/08/18 01:31:20;;;;;;;9.52;6.63;;;;;;;14.65;100.00;100451.97;5211422;28;20036;-77
2021/08/18 01:33:50;;;;;;;7.30;6.22;;;;;;;14.61;100.00;100444.31;5192200;28;20368;-80
2021/08/18 01:36:21;;;;;;;7.30;6.07;;;;;;;14.59;100.00;100451.44;5211831;28;20029;-77
2021/08/18 01:38:51;;;;;;;6.95;5.70;;;;;;;14.71;100.00;100442.88;5209247;28;20037;-79
2021/08/18 01:41:21;;;;;;;8.27;6.10;;;;;;;14.76;100.00;100446.94;5211883;28;20025;-76
2021/08/18 01:43:52;;;;;;;7.80;5.72;;;;;;;14.81;100.00;100446.72;5209751;28;20022;-77
2021/08/18 01:46:22;;;;;;;9.63;6.78;;;;;;;14.71;100.00;100448.13;5211568;28;20036;-77
2021/08/18 01:48:53;;;;;;;7.85;5.75;;;;;;;14.82;100.00;100451.03;5208361;28;20052;-77
2021/08/18 01:51:23;;;;;;;7.38;6.03;;;;;;;14.65;100.00;100437.94;5209159;28;20029;-77
2021/08/18 01:53:54;;;;;;;9.25;6.13;;;;;;;14.65;100.00;100443.22;5212777;28;20554;-79
2021/08/18 01:56:25;;;;;;;7.88;6.30;;;;;;;14.68;100.00;100440.41;5211558;28;20032;-76
2021/08/18 01:58:55;;;;;;;10.43;6.45;;;;;;;14.66;100.00;100439.66;5195180;28;20470;-78
2021/08/18 02:01:25;;;;;;;9.82;7.18;;;;;;;14.69;100.00;100439.47;5191024;28;20025;-80
2021/08/18 02:03:55;;;;;;;10.95;7.38;;;;;;;14.56;100.00;100434.03;5208395;28;20230;-76
2021/08/18 02:06:27;;;;;;;10.70;7.73;;;;;;;14.47;100.00;100424.03;5208251;28;20511;-76
2021/08/18 02:08:57;;;;;;;10.02;7.45;;;;;;;14.46;100.00;100426.72;5208807;28;20623;-78
2021/08/18 02:11:27;;;;;;;11.73;7.50;;;;;;;14.42;100.00;100435.72;5205111;28;20028;-78
2021/08/18 02:13:58;;;;;;;10.75;8.13;;;;;;;14.49;100.00;100427.41;5212283;28;20306;-80
2021/08/18 02:16:28;;;;;;;10.30;7.65;;;;;;;14.41;100.00;100434.84;5208698;28;20394;-77
2021/08/18 02:18:58;;;;;;;9.83;7.80;;;;;;;14.52;100.00;100429.00;5206711;28;20033;-80
2021/08/18 02:21:28;;;;;;;10.45;7.78;;;;;;;14.56;100.00;100433.19;5212046;28;20286;-78
2021/08/18 02:23:59;;;;;;;13.57;7.65;;;;;;;14.33;100.00;100430.94;5208574;28;20033;-76
2021/08/18 02:26:29;;;;;;;11.27;7.93;;;;;;;14.56;100.00;100428.78;5212408;28;20102;-76
2021/08/18 02:28:59;;;;;;;11.23;8.40;;;;;;;14.52;100.00;100429.00;5205473;28;20291;-77
2021/08/18 02:31:30;;;;;;;13.90;8.27;;;;;;;14.38;100.00;100427.13;5215708;28;20714;-77
2021/08/18 02:34:00;;;;;;;13.50;8.45;;;;;;;14.38;100.00;100429.75;5208205;28;20109;-78
2021/08/18 02:36:31;;;;;;;12.35;7.93;;;;;;;14.32;100.00;100434.50;5199583;28;20120;-81
2021/08/18 02:39:02;;;;;;;13.50;8.47;;;;;;;14.23;100.00;100433.19;5209919;28;20039;-79
2021/08/18 02:41:34;;;;;;;15.48;8.40;;;;;;;14.26;100.00;100433.03;5198562;28;20836;-77
2021/08/18 02:44:04;;;;;;;12.48;7.43;;;;;;;14.34;100.00;100427.38;5214696;28;20079;-78
2021/08/18 02:46:34;;;;;;;13.95;8.00;;;;;;;14.40;100.00;100420.00;5212364;28;20456;-79
2021/08/18 02:49:05;;;;;;;12.35;7.68;;;;;;;14.38;100.00;100421.88;5209094;28;20407;-80
2021/08/18 02:51:35;;;;;;;11.45;7.15;;;;;;;14.37;100.00;100416.69;5214762;28;20025;-78
2021/08/18 02:54:05;;;;;;;11.10;7.53;;;;;;;14.29;100.00;100432.88;5212263;28;20094;-79
2021/08/18 02:56:35;;;;;;;13.43;8.15;;;;;;;14.29;100.00;100421.50;5214434;28;20120;-78
2021/08/18 02:59:06;;;;;;;13.60;7.55;;;;;;;14.39;100.00;100423.56;5211864;28;20021;-77
2021/08/18 03:01:37;;;;;;;12.70;7.63;;;;;;;14.47;100.00;100417.91;5215528;28;20056;-78
2021/08/18 03:04:08;;;;;;;13.50;7.60;;;;;;;14.37;100.00;100419.31;5211262;28;20029;-79
2021/08/18 03:06:38;;;;;;;11.93;7.50;;;;;;;14.36;100.00;100422.88;5213176;28;20179;-78
2021/08/18 03:09:08;;;;;;;15.38;8.55;;;;;;;14.22;100.00;100428.88;5212538;28;20288;-77
2021/08/18 03:11:39;;;;;;;14.15;7.82;;;;;;;14.33;100.00;100421.28;5214832;28;20039;-77
2021/08/18 03:14:09;;;;;;;14.55;7.97;;;;;;;14.36;100.00;100423.75;5212631;28;20510;-77
2021/08/18 03:16:39;;;;;;;13.05;7.57;;;;;;;14.42;100.00;100425.19;5213633;28;20325;-77
2021/08/18 03:19:10;;;;;;;15.70;7.88;;;;;;;14.37;100.00;100422.81;5209994;28;20133;-77
2021/08/18 03:21:40;;;;;;;14.23;7.32;;;;;;;14.36;100.00;100426.38;5213060;28;20026;-75
2021/08/18 03:24:11;;;;;;;16.50;7.28;;;;;;;14.31;100.00;100422.28;5214128;28;20033;-75
2021/08/18 03:26:42;;;;;;;11.63;7.47;;;;;;;14.28;100.00;100418.03;5212800;28;20025;-77
2021/08/18 03:29:12;;;;;;;10.65;6.90;;;;;;;14.38;100.00;100413.13;5195535;28;20033;-76
2021/08/18 03:31:42;;;;;;;11.50;6.30;;;;;;;14.40;100.00;100412.13;5212370;28;20098;-76
2021/08/18 03:34:12;;;;;;;10.02;6.03;;;;;;;14.36;100.00;100417.63;5213242;28;20021;-76
2021/08/18 03:36:43;;;;;;;8.98;5.43;;;;;;;14.29;100.00;100413.63;5212301;28;20029;-77
2021/08/18 03:39:13;;;;;;;9.07;5.88;;;;;;;14.30;100.00;100416.19;5213076;28;20021;-75
2021/08/18 03:41:43;;;;;;;9.57;5.70;;;;;;;14.49;100.00;100411.66;5212866;28;20056;-75
2021/08/18 03:44:14;;;;;;;12.85;6.22;;;;;;;14.46;100.00;100408.31;5212605;28;20279;-76
2021/08/18 03:46:44;;;;;;;13.00;7.20;;;;;;;14.43;100.00;100401.44;5214008;28;20029;-77
2021/08/18 03:49:14;;;;;;;10.43;7.03;;;;;;;14.39;100.00;100404.34;5190054;28;20021;-76
2021/08/18 03:51:45;;;;;;;11.80;7.10;;;;;;;14.34;100.00;100401.09;5212810;28;20537;-76
2021/08/18 03:54:15;;;;;;;13.00;6.40;;;;;;;14.34;100.00;100403.72;5212226;28;20099;-75
2021/08/18 03:56:45;;;;;;;10.77;6.77;;;;;;;14.30;100.00;100412.69;5213066;28;20021;-75
2021/08/18 03:59:16;;;;;;;13.20;6.43;;;;;;;14.27;100.00;100404.97;5212180;28;20294;-77
2021/08/18 04:01:46;;;;;;;8.65;5.18;;;;;;;14.43;100.00;100409.31;5212478;28;20071;-77
2021/08/18 04:04:16;;;;;;;8.45;5.15;;;;;;;14.42;100.00;100406.78;5211841;28;20021;-77
2021/08/18 04:06:47;;;;;;;8.93;5.30;;;;;;;14.38;100.00;100399.97;5211282;28;20120;-77
2021/08/18 04:09:17;;;;;;;8.93;5.18;;;;;;;14.36;100.00;100396.59;5197311;28;20029;-77
2021/08/18 04:11:47;;;;;;;11.43;5.33;;;;;;;14.35;100.00;100408.91;5212004;28;20021;-78
2021/08/18 04:14:18;;;;;;;7.97;5.35;;;;;;;14.46;100.00;100389.91;5213048;28;20330;-78
2021/08/18 04:16:48;;;;;;;7.20;4.72;;;;;;;14.49;100.00;100401.13;5213125;28;20052;-76
2021/08/18 04:19:18;;;;;;;9.68;5.20;;;;;;;14.46;100.00;100400.44;5206781;28;20362;-76
2021/08/18 04:21:48;;;;;;;7.63;4.80;;;;;;;14.49;100.00;100401.13;5212983;28;20036;-76
2021/08/18 04:24:19;;;;;;;7.47;4.53;;;;;;;14.47;100.00;100399.50;5211463;28;20092;-76
2021/08/18 04:26:49;;;;;;;7.35;4.82;;;;;;;14.47;100.00;100395.09;5212882;28;20625;-75
2021/08/18 04:29:19;;;;;;;7.13;4.70;;;;;;;14.50;100.00;100397.56;5210743;28;20394;-76
2021/08/18 04:31:50;;;;;;;8.07;4.40;;;;;;;14.60;100.00;100398.72;5212480;28;20055;-76
2021/08/18 04:34:20;;;;;;;8.10;4.47;;;;;;;14.45;100.00;100396.94;5211111;28;20276;-76
2021/08/18 04:36:50;;;;;;;8.35;4.90;;;;;;;14.55;100.00;100399.91;5211079;28;20033;-75
2021/08/18 04:39:21;;;;;;;7.32;4.80;;;;;;;14.57;100.00;100398.06;5212420;28;20047;-76
2021/08/18 04:41:51;;;;;;;7.60;4.17;;;;;;;14.78;100.00;100396.91;5210887;28;20029;-77
2021/08/18 04:44:21;;;;;;;6.90;4.57;;;;;;;14.74;100.00;100398.00;5212624;28;20271;-76
2021/08/18 04:46:51;;;;;;;6.85;4.47;;;;;;;14.72;100.00;100397.22;5212324;28;20271;-77
2021/08/18 04:49:22;;;;;;;6.10;4.03;;;;;;;14.84;100.00;100398.22;5206341;28;20029;-77
2021/08/18 04:51:52;;;;;;;5.93;3.92;;;;;;;14.81;100.00;100397.59;5211592;28;20372;-77
2021/08/18 04:54:22;;;;;;;6.53;4.50;;;;;;;14.76;100.00;100399.59;5210090;28;20029;-77
2021/08/18 04:56:52;;;;;;;7.15;4.30;;;;;;;14.88;100.00;100399.75;5212686;28;20267;-77
2021/08/18 04:59:23;;;;;;;5.97;4.13;;;;;;;14.88;100.00;100405.00;5210085;28;20028;-77
2021/08/18 05:01:53;;;;;;;6.35;4.43;;;;;;;14.92;100.00;100403.06;5213214;28;20056;-79
2021/08/18 05:04:23;;;;;;;7.10;4.63;;;;;;;14.96;100.00;100408.09;5209364;28;20021;-79
2021/08/18 05:06:54;;;;;;;7.32;5.43;;;;;;;14.98;100.00;100414.13;5210287;28;20892;-78
2021/08/18 05:09:24;;;;;;;6.80;4.83;;;;;;;15.21;100.00;100403.13;5212108;28;20057;-78
2021/08/18 05:11:55;;;;;;;6.72;4.88;;;;;;;15.21;100.00;100408.38;5209332;28;20306;-76
2021/08/18 05:14:26;;;;;;;8.32;5.32;;;;;;;15.13;100.00;100415.88;5212467;28;20208;-77
2021/08/18 05:16:56;;;;;;;6.57;5.03;;;;;;;15.14;100.00;100407.03;5192171;28;20442;-78
2021/08/18 05:19:26;;;;;;;8.27;5.75;;;;;;;15.21;100.00;100408.38;5205713;28;20492;-79
2021/08/18 05:21:57;;;;;;;7.95;4.60;;;;;;;15.87;100.00;100408.94;5208955;28;20036;-78
2021/08/18 05:24:27;;;;;;;8.33;5.10;;;;;;;15.93;100.00;100408.53;5212727;28;20054;-77
2021/08/18 05:26:59;;;;;;;7.03;5.40;;;;;;;15.85;100.00;100401.09;5208565;28;20279;-79
2021/08/18 05:29:29;;;;;;;7.93;4.80;;;;;;;15.97;100.00;100407.41;5208965;28;20387;-76
2021/08/18 05:31:59;;;;;;;5.53;4.43;;;;;;;16.08;100.00;100408.47;5197294;28;20086;-80
2021/08/18 05:34:30;;;;;;;6.85;4.38;;;;;;;16.09;100.00;100412.81;5219247;28;20033;-81
2021/08/18 05:37:00;;;;;;;6.10;4.10;;;;;;;16.21;100.00;100419.97;5216231;28;20029;-79
2021/08/18 05:39:30;;;;;;;8.90;4.78;;;;;;;16.06;100.00;100414.78;5217646;28;20025;-79
2021/08/18 05:42:01;;;;;;;6.13;4.50;;;;;;;16.01;100.00;100407.16;5216306;28;20029;-80
2021/08/18 05:44:31;;;;;;;6.03;4.30;;;;;;;16.14;100.00;100413.38;5201889;28;20037;-78
2021/08/18 05:47:01;;;;;;;5.78;4.45;;;;;;;15.81;100.00;100409.28;5209789;28;20025;-75
2021/08/18 05:49:31;;;;;;;5.10;4.10;;;;;;;15.84;100.00;100404.69;5205643;28;20052;-75
2021/08/18 05:52:02;;;;;;;6.18;4.63;;;;;;;15.83;100.00;100410.03;5220044;28;20025;-75
2021/08/18 05:54:32;;;;;;;6.65;4.70;;;;;;;15.71;100.00;100418.69;5220082;28;20362;-75
2021/08/18 05:57:04;;;;;;;6.75;4.85;;;;;;;15.61;100.00;100407.84;5212575;28;20422;-75
2021/08/18 05:59:34;;;;;;;7.40;5.00;;;;;;;15.65;100.00;100411.97;5197053;28;20030;-78
2021/08/18 06:02:04;;;;;;;7.13;5.20;;;;;;;15.59;100.00;100417.63;5215540;28;20017;-76
2021/08/18 06:04:35;;;;;;;6.53;5.13;;;;;;;15.40;100.00;100418.75;5213871;28;20280;-76
2021/08/18 06:07:05;;;;;;;6.13;4.40;;;;;;;15.62;100.00;100412.16;5211407;28;20029;-80
2021/08/18 06:09:37;;;;;;;6.70;4.82;;;;;;;15.47;100.00;100415.69;5204936;28;20385;-78
2021/08/18 06:12:08;;;;;;;6.78;4.53;;;;;;;15.55;100.00;100423.16;5221650;28;20609;-78
2021/08/18 06:14:38;;;;;;;7.40;4.85;;;;;;;15.68;100.00;100417.06;5211581;28;20057;-78
2021/08/18 06:17:08;;;;;;;6.03;5.05;;;;;;;15.71;100.00;100423.94;5208139;28;20577;-75
2021/08/18 06:19:39;;;;;;;6.10;4.47;;;;;;;15.77;100.00;100418.31;5209490;28;20025;-76
2021/08/18 06:22:09;;;;;;;6.20;4.80;;;;;;;15.88;100.00;100426.44;5219949;28;20041;-76
2021/08/18 06:24:43;;;;;;;5.95;4.55;;;;;;;15.93;100.00;100419.09;5223146;28;20285;-76
2021/08/18 06:27:13;;;;;;;5.97;4.70;;;;;;;15.98;100.00;100425.78;5223613;28;20028;-76
2021/08/18 06:29:44;;;;;;;7.85;5.13;;;;;;;16.09;100.00;100418.09;5216301;28;20497;-76
2021/08/18 06:32:14;;;;;;;8.65;5.40;;;;;;;16.21;100.00;100421.78;5214773;28;20501;-77
2021/08/18 06:34:44;;;;;;;6.07;4.60;;;;;;;16.58;100.00;100424.69;5219236;28;20116;-80
2021/08/18 06:37:14;;;;;;;7.65;5.50;;;;;;;17.00;100.00;100414.09;5216753;28;20275;-79
2021/08/18 06:39:45;;;;;;;6.50;4.38;;;;;;;18.17;96.77;100404.31;5216468;28;20021;-80
2021/08/18 06:42:15;;;;;;;6.28;4.15;;;;;;;18.79;92.70;100406.91;5215341;28;20021;-79
2021/08/18 06:44:49;;;;;;;6.80;4.10;;;;;;;20.08;87.41;100407.78;5213528;28;20659;-76
2021/08/18 06:47:19;;;;;;;4.43;3.63;;;;;;;19.58;87.71;100404.63;5195166;28;20064;-78
2021/08/18 06:49:50;;;;;;;4.55;3.38;;;;;;;19.01;90.19;100407.09;5210423;28;20143;-77
2021/08/18 06:52:20;;;;;;;5.07;3.93;;;;;;;19.48;90.80;100407.09;5202256;28;20564;-78
2021/08/18 06:54:51;;;;;;;5.43;3.90;;;;;;;20.18;85.74;100411.44;5212580;28;20283;-77
2021/08/18 06:57:21;;;;;;;4.38;3.33;;;;;;;21.63;79.29;100398.66;5213656;28;20021;-77
2021/08/18 06:59:51;;;;;;;5.40;3.20;;;;;;;21.48;79.58;100394.59;5214983;28;20029;-78
2021/08/18 07:02:22;;;;;;;4.68;3.58;;;;;;;21.32;79.60;100392.38;5209900;28;20848;-78
2021/08/18 07:04:52;;;;;;;4.23;3.20;;;;;;;20.99;80.45;100410.22;5212102;28;20017;-77
2021/08/18 07:07:22;;;;;;;3.93;3.10;;;;;;;19.65;84.65;100411.97;5214263;28;20373;-77
2021/08/18 07:09:52;;;;;;;4.90;3.17;;;;;;;19.49;87.49;100411.47;5212814;28;20296;-77
2021/08/18 07:12:22;;;;;;;6.17;3.07;;;;;;;18.75;91.85;100423.97;5213284;28;20283;-77
2021/08/18 07:14:53;;;;;;;7.37;3.40;;;;;;;18.45;92.38;100414.72;5210665;28;20338;-76
2021/08/18 07:17:23;;;;;;;5.00;3.67;;;;;;;18.66;89.35;100415.84;5210813;28;20832;-76
2021/08/18 07:19:53;;;;;;;4.60;3.40;;;;;;;19.80;85.65;100412.63;5210218;28;20316;-78
2021/08/18 07:22:24;;;;;;;7.07;3.10;;;;;;;20.66;82.63;100412.03;5210486;28;20295;-77
2021/08/18 07:24:55;;;;;;;5.43;3.17;;;;;;;19.91;82.93;100404.69;5213546;28;20032;-77
2021/08/18 07:27:26;;;;;;;5.30;2.80;;;;;;;20.83;80.22;100396.44;5209630;28;20068;-76
2021/08/18 07:29:57;;;;;;;4.43;2.58;;;;;;;21.99;74.97;100392.91;5213338;28;20467;-76
2021/08/18 07:32:27;;;;;;;4.57;2.78;;;;;;;20.05;82.09;100389.47;5209745;28;20037;-77
2021/08/18 07:34:57;;;;;;;4.40;2.53;;;;;;;19.63;83.90;100394.50;5206860;28;20199;-76
2021/08/18 07:37:29;;;;;;;4.57;2.70;;;;;;;19.54;83.30;100400.47;5213546;28;20053;-76
2021/08/18 07:40:00;;;;;;;4.32;3.00;;;;;;;19.25;85.25;100405.31;5206830;28;20025;-77
2021/08/18 07:42:30;;;;;;;5.88;3.20;;;;;;;18.88;86.69;100400.97;5213653;28;20047;-77
2021/08/18 07:45:00;;;;;;;4.40;2.90;;;;;;;18.89;87.21;100405.31;5209289;28;20368;-78
2021/08/18 07:47:31;;;;;;;4.65;2.80;;;;;;;18.74;89.05;100405.56;5211321;28;20268;-79
2021/08/18 07:50:02;;;;;;;4.60;2.80;;;;;;;18.39;88.28;100398.44;5207988;28;20285;-76
2021/08/18 07:52:32;;;;;;;4.85;2.67;;;;;;;18.09;89.59;100404.03;5216640;28;20158;-77
2021/08/18 07:55:05;;;;;;;4.78;2.83;;;;;;;18.75;89.10;100408.09;5215110;28;20217;-76
2021/08/18 07:57:35;;;;;;;5.72;2.60;;;;;;;18.87;86.58;100409.00;5211361;28;20041;-77
2021/08/18 08:00:07;;;;;;;4.53;2.43;;;;;;;18.98;85.12;100404.66;5209452;28;20486;-77
2021/08/18 08:02:37;;;;;;;4.30;2.72;;;;;;;19.01;84.91;100415.03;5212060;28;20900;-76
2021/08/18 08:05:08;;;;;;;5.82;2.60;;;;;;;19.88;83.33;100404.94;5209315;28;20030;-77
2021/08/18 08:07:39;;;;;;;4.53;2.50;;;;;;;20.92;77.86;100406.38;5211108;28;20069;-76
2021/08/18 08:10:11;;;;;;;5.90;2.40;;;;;;;21.34;75.43;100400.19;5209026;28;20124;-77
2021/08/18 08:12:41;;;;;;;4.63;2.30;;;;;;;20.94;76.72;100410.59;5210360;28;20043;-77
2021/08/18 08:15:12;;;;;;;3.85;2.35;;;;;;;20.83;77.98;100405.28;5210372;28;20433;-77
2021/08/18 08:17:42;;;;;;;3.88;2.20;;;;;;;20.92;79.12;100403.72;5210196;28;20041;-77
2021/08/18 08:20:13;;;;;;;5.47;3.00;;;;;;;20.19;81.47;100407.81;5192178;28;20037;-77
2021/08/18 08:22:43;;;;;;;5.97;2.60;;;;;;;20.11;82.09;100409.38;5210877;28;20033;-77
2021/08/18 08:25:14;;;;;;;4.75;2.10;;;;;;;19.88;83.74;100405.78;5210154;28;20405;-77
2021/08/18 08:27:44;;;;;;;4.35;2.33;;;;;;;19.51;81.82;100401.59;5209385;28;20072;-77
2021/08/18 08:30:14;;;;;;;6.20;2.40;;;;;;;19.41;82.29;100413.81;5209881;28;20017;-77
2021/08/18 08:32:45;;;;;;;4.53;2.65;;;;;;;19.13;82.71;100403.50;5210872;28;20287;-77
2021/08/18 08:35:15;;;;;;;4.43;2.20;;;;;;;19.21;84.67;100414.44;5206068;28;20025;-77
2021/08/18 08:37:46;;;;;;;4.95;2.55;;;;;;;19.32;84.41;100406.56;5212060;28;20479;-76
2021/08/18 08:40:16;;;;;;;4.18;2.42;;;;;;;19.20;84.17;100404.81;5212780;28;20037;-77
2021/08/18 08:42:48;;;;;;;5.53;2.67;;;;;;;19.07;83.99;100419.03;5210546;28;20039;-77
2021/08/18 08:45:18;;;;;;;4.22;2.28;;;;;;;18.97;83.90;100412.69;5211013;28;20044;-77
2021/08/18 08:47:49;;;;;;;6.57;2.78;;;;;;;18.89;84.66;100415.91;5210124;28;20041;-78
2021/08/18 08:50:20;;;;;;;6.13;2.63;;;;;;;18.91;85.55;100408.69;5204000;28;20573;-78
2021/08/18 08:52:50;;;;;;;4.10;2.47;;;;;;;18.87;85.33;100401.94;5212025;28;20482;-78
2021/08/18 08:55:21;;;;;;;3.80;2.13;;;;;;;18.84;84.49;100410.09;5208759;28;20320;-78
2021/08/18 08:57:54;;;;;;;4.78;2.22;;;;;;;18.75;83.51;100401.97;5211956;28;20025;-79
2021/08/18 09:00:25;;;;;;;5.28;2.63;;;;;;;18.93;82.86;100405.94;5207035;28;20065;-78
2021/08/18 09:03:10;;;;;;;4.65;2.13;;;;;;;19.43;82.06;100403.13;5213406;28;20063;-79
2021/08/18 09:05:40;;;;;;;6.10;2.13;;;;;;;19.62;81.45;100398.13;5201164;28;20523;-78
2021/08/18 09:08:19;;;;;;;4.50;2.28;;;;;;;19.96;79.72;100406.03;5208917;28;20027;-80
2021/08/18 09:11:10;;;;;;;3.83;2.10;;;;;;;19.84;79.52;100406.13;5208821;28;20407;-80
2021/08/18 09:13:44;;;;;;;5.63;2.42;;;;;;;20.05;79.35;100413.34;5201291;28;20474;-78
2021/08/18 09:16:17;;;;;;;4.55;2.15;;;;;;;20.28;79.28;100411.56;5203638;28;20106;-77
2021/08/18 09:18:53;;;;;;;4.13;2.33;;;;;;;20.33;79.05;100410.22;5210831;28;20033;-78
2021/08/18 09:21:28;;;;;;;5.30;1.95;;;;;;;20.39;78.24;100404.44;5210367;28;20033;-77
2021/08/18 09:24:10;;;;;;;4.25;2.35;;;;;;;19.94;80.41;100415.91;5211139;28;20104;-82
2021/08/18 09:26:46;;;;;;;7.63;2.00;;;;;;;20.02;80.02;100415.38;5206722;28;20095;-79
2021/08/18 09:29:42;;;;;;;5.38;1.90;;;;;;;19.73;81.25;100408.75;5208813;28;20029;-80
2021/08/18 09:32:31;;;;;;;3.13;1.88;;;;;;;19.70;81.42;100415.16;5200993;28;20632;-78
2021/08/18 09:35:09;;;;;;;3.00;1.98;;;;;;;19.42;81.90;100410.22;5185760;28;20049;-77
2021/08/18 09:37:51;;;;;;;6.22;2.50;;;;;;;19.00;83.94;100417.78;5211170;28;20036;-80
2021/08/18 09:40:30;;;;;;;4.80;1.88;;;;;;;18.82;85.47;100414.66;5214466;28;20041;-81
2021/08/18 09:43:13;;;;;;;3.25;2.20;;;;;;;19.05;85.16;100423.56;5211555;28;20039;-79
2021/08/18 09:45:45;;;;;;;3.55;2.05;;;;;;;18.99;84.07;100414.28;5213321;28;20061;-81
2021/08/18 09:48:18;;;;;;;4.05;2.22;;;;;;;19.00;84.81;100415.97;5209263;28;20284;-80
2021/08/18 09:51:05;;;;;;;4.05;2.17;;;;;;;19.05;83.65;100405.03;5210840;28;20037;-78
2021/08/18 09:53:41;;;;;;;5.93;2.15;;;;;;;19.22;83.26;100417.94;5209453;28;20499;-77
2021/08/18 09:56:14;;;;;;;4.07;2.05;;;;;;;19.57;83.41;100413.50;5220197;28;20109;-77
2021/08/18 09:58:51;;;;;;;5.55;2.10;;;;;;;20.01;82.29;100413.66;5222754;28;20100;-77
2021/08/18 10:01:22;;;;;;;5.10;2.00;;;;;;;20.36;79.35;100406.50;5201084;28;20123;-78
2021/08/18 10:03:52;;;;;;;4.80;2.00;;;;;;;20.51;80.11;100408.78;5221063;28;20100;-78
2021/08/18 10:06:24;;;;;;;4.00;2.00;;;;;;;20.56;78.83;100406.63;5210196;28;20119;-78
2021/08/18 10:08:55;;;;;;;3.58;2.15;;;;;;;20.07;79.00;100411.41;5220176;28;20505;-79
2021/08/18 10:11:26;;;;;;;4.47;1.80;;;;;;;19.75;80.20;100412.97;5202645;28;20033;-77
2021/08/18 10:13:57;;;;;;;5.20;1.92;;;;;;;19.11;83.39;100421.31;5221942;28;20370;-77
2021/08/18 10:16:29;;;;;;;2.22;1.55;;;;;;;18.53;84.68;100438.00;5221100;28;20049;-78
2021/08/18 10:19:04;;;;;;;3.38;1.63;;;;;;;18.37;88.95;100440.88;5216395;28;20025;-77
2021/08/18 10:21:36;;;;;;;5.63;2.05;;;;;;;18.28;90.77;100451.25;5201506;28;20139;-78
2021/08/18 10:24:08;;;;;;;5.90;2.40;;;;;;;17.88;95.88;100447.81;5211776;28;20447;-77
2021/08/18 10:26:38;;;;;;;5.65;2.25;;;;;;;17.77;98.67;100446.81;5213639;28;20041;-77
2021/08/18 10:29:26;;;;;;;4.90;2.50;;;;;;;17.94;99.49;100438.59;5211872;28;20033;-77
2021/08/18 10:31:59;;;;;;;4.38;2.70;;;;;;;18.08;98.12;100434.06;5210908;28;20202;-80
2021/08/18 10:34:33;;;;;;;5.13;2.25;;;;;;;18.36;97.89;100430.41;5217122;28;20060;-81
2021/08/18 10:37:16;;;;;;;5.88;2.63;;;;;;;18.31;97.02;100428.06;5214380;28;20572;-80
2021/08/18 10:39:52;;;;;;;4.93;2.28;;;;;;;18.64;97.19;100425.72;5202073;28;20036;-77
2021/08/18 10:42:25;;;;;;;;;;;;;;;19.27;93.45;100427.22;5217584;28;20032;-77
2021/08/18 10:44:55;;;;;;;4.32;2.50;;;;;;;19.00;94.24;100423.94;5196589;28;19916;-80
2021/08/18 10:47:31;;;;;;;5.18;1.98;;;;;;;19.10;91.74;100427.59;5214128;28;20041;-78
2021/08/18 10:50:23;;;;;;;6.53;2.45;;;;;;;19.04;89.82;100425.41;5203792;28;20108;-77
2021/08/18 10:52:54;;;;;;;4.10;1.92;;;;;;;18.77;91.06;100426.53;5211697;28;20055;-77
2021/08/18 10:55:24;;;;;;;6.57;2.13;;;;;;;18.82;92.97;100435.00;5218547;28;20025;-78
2021/08/18 10:57:56;;;;;;;5.03;2.30;;;;;;;18.91;91.12;100427.22;5217944;28;20518;-78
2021/08/18 11:00:34;;;;;;;5.50;2.33;;;;;;;18.97;91.82;100423.31;5220249;28;20013;-78
2021/08/18 11:03:11;;;;;;;6.07;1.92;;;;;;;19.18;86.65;100416.47;5219845;28;20557;-77
2021/08/18 11:05:49;;;;;;;3.03;1.92;;;;;;;19.72;86.13;100412.34;5218865;28;20036;-78
2021/08/18 11:08:38;;;;;;;4.88;2.28;;;;;;;19.77;85.22;100405.75;5218396;28;20047;-78
2021/08/18 11:11:11;;;;;;;3.65;1.80;;;;;;;20.15;85.34;100405.50;5215813;28;20025;-78
2021/08/18 11:13:42;;;;;;;4.72;1.98;;;;;;;19.84;83.85;100409.66;5211431;28;20033;-78
2021/08/18 11:16:18;;;;;;;2.63;1.77;;;;;;;20.10;82.06;100411.16;5211699;28;20049;-77
2021/08/18 11:18:53;;;;;;;3.00;1.88;;;;;;;20.28;81.94;100407.09;5210050;28;20040;-78
2021/08/18 11:21:28;;;;;;;3.20;1.70;;;;;;;20.39;82.08;100403.59;5210439;28;20021;-77
2021/08/18 11:24:04;;;;;;;3.53;1.88;;;;;;;20.22;80.21;100402.25;5213612;28;20043;-78
2021/08/18 11:26:37;;;;;;;2.67;1.50;;;;;;;20.12;81.13;100408.41;5208700;28;20047;-80
2021/08/18 11:29:10;;;;;;;4.28;1.90;;;;;;;19.72;82.65;100407.91;5213065;28;20041;-77
2021/08/18 11:31:49;;;;;;;3.38;2.05;;;;;;;19.44;83.68;100413.59;5209106;28;20120;-80
2021/08/18 11:34:23;;;;;;;3.85;1.83;;;;;;;19.32;83.66;100406.56;5192558;28;20037;-80
2021/08/18 11:37:12;;;;;;;4.88;1.95;;;;;;;19.41;82.54;100408.50;5212978;28;20048;-79
2021/08/18 11:39:46;;;;;;;4.22;1.80;;;;;;;19.49;83.68;100407.94;5214671;28;20045;-77